createdAt,value
2023-01-19T08:00:04.769Z,99086.34
2023-01-19T08:01:10.953Z,99081.80
2023-01-19T08:02:16.364Z,99082.08
2023-01-19T08:03:19.913Z,99081.52
2023-01-19T08:04:22.346Z,99078.16
2023-01-19T08:05:25.474Z,99064.31
2023-01-19T08:06:32.378Z,99072.59
2023-01-19T08:07:35.415Z,99068.51
2023-01-19T08:08:37.807Z,99076.76
2023-01-19T08:09:41.444Z,99068.16
2023-01-19T08:10:44.723Z,99064.91
2023-01-19T08:11:47.773Z,99064.41
2023-01-19T08:12:50.887Z,99071.94
2023-01-19T08:13:54.032Z,99065.99
2023-01-19T08:14:57.384Z,99069.20
2023-01-19T08:15:59.860Z,99060.67
2023-01-19T08:17:03.686Z,99062.97
2023-01-19T08:18:08.180Z,99052.17
2023-01-19T08:19:10.655Z,99059.70
2023-01-19T08:20:13.687Z,99061.03
2023-01-19T08:21:16.145Z,99066.13
2023-01-19T08:22:19.614Z,99070.25
2023-01-19T08:23:22.091Z,99076.35
2023-01-19T08:24:27.534Z,99085.09
2023-01-19T08:25:41.693Z,99081.32
2023-01-19T08:26:44.682Z,99085.70
2023-01-19T08:27:47.306Z,99089.22
2023-01-19T08:28:50.449Z,99090.93
2023-01-19T08:29:54.197Z,99094.45
2023-01-19T08:31:05.324Z,99097.99
2023-01-19T08:32:05.617Z,99092.64
2023-01-19T08:33:08.349Z,99110.38
2023-01-19T08:34:11.011Z,99097.00
2023-01-19T08:35:15.181Z,99090.67
2023-01-19T08:36:19.088Z,99096.03
2023-01-19T08:37:22.210Z,99095.06
2023-01-19T08:38:26.042Z,99100.28
2023-01-19T08:39:29.871Z,99099.33
2023-01-19T08:40:37.204Z,99093.84
2023-01-19T08:41:40.447Z,99101.62
2023-01-19T08:42:42.944Z,99101.48
2023-01-19T08:43:45.674Z,99092.62
2023-01-19T08:44:57.487Z,99098.69
2023-01-19T08:45:52.995Z,99087.98
2023-01-19T08:46:55.878Z,99087.14
2023-01-19T08:48:00.143Z,99087.98
2023-01-19T08:49:03.902Z,99089.69
2023-01-19T08:50:10.149Z,99089.56
2023-01-19T08:52:15.924Z,99092.11
2023-01-19T08:53:21.564Z,99085.91
2023-01-19T08:54:25.011Z,99094.78
2023-01-19T08:55:28.793Z,99086.75
2023-01-19T08:56:32.928Z,99085.78
2023-01-19T09:18:28.156Z,99070.21
2023-01-19T09:20:00.972Z,99055.12
2023-01-19T09:29:56.902Z,99082.59
2023-01-19T09:31:19.353Z,99082.73
2023-01-19T09:32:24.489Z,99081.76
2023-01-19T09:33:29.883Z,99076.41
2023-01-19T09:34:32.175Z,99078.11
2023-01-19T09:35:35.051Z,99065.70
2023-01-19T09:36:39.003Z,99065.70
2023-01-19T09:37:44.358Z,99063.02
2023-01-19T09:38:46.751Z,99065.56
2023-01-19T09:39:51.775Z,99067.27
2023-01-19T09:40:55.719Z,99067.14
2023-01-19T09:42:29.471Z,99060.95
2023-01-19T09:43:38.552Z,99065.30
2023-01-19T09:44:41.939Z,99062.63
2023-01-19T09:50:09.971Z,99051.08
2023-01-19T09:51:18.682Z,99047.44
2023-01-19T09:52:22.406Z,99048.27
2023-01-19T09:53:49.794Z,99042.92
2023-01-19T09:55:02.068Z,99042.92
2023-01-19T09:56:11.942Z,99043.05
2023-01-19T09:57:14.863Z,99039.41
2023-01-19T09:58:19.258Z,99034.89
2023-01-19T09:59:24.825Z,99037.56
2023-01-19T10:00:27.851Z,99026.02
2023-01-19T10:02:55.476Z,99025.03
2023-01-19T10:04:16.744Z,99025.05
2023-01-19T10:05:23.293Z,99024.18
2023-01-19T10:06:26.414Z,99012.50
2023-01-19T10:07:41.442Z,99021.38
2023-01-19T10:09:03.554Z,99019.44
2023-01-19T10:10:13.506Z,99017.59
2023-01-19T10:13:06.838Z,99019.42
2023-01-19T10:15:53.640Z,99014.90
2023-01-19T10:18:32.845Z,99007.60
2023-01-19T10:20:53.152Z,99001.38
2023-01-19T10:21:57.865Z,99000.46
2023-01-19T10:23:01.333Z,98995.95
2023-01-19T10:24:07.320Z,98998.48
2023-01-19T10:25:17.150Z,98988.65
2023-01-19T10:26:22.803Z,98993.73
2023-01-19T10:28:41.400Z,98990.73
2023-01-19T10:29:43.838Z,98986.31
2023-01-19T10:30:46.159Z,98981.80
2023-01-19T10:31:52.119Z,98985.17
2023-01-19T10:32:55.891Z,98984.34
2023-01-19T10:34:00.384Z,98969.98
2023-01-19T10:35:06.815Z,98976.17
2023-01-19T10:36:19.020Z,98972.39
2023-01-19T10:37:32.903Z,98972.39
2023-01-19T10:38:35.259Z,98966.90
2023-01-19T10:39:49.001Z,98971.28
2023-01-19T10:40:57.515Z,98966.06
2023-01-19T10:42:00.485Z,98966.77
2023-01-19T10:43:32.515Z,98964.22
2023-01-19T10:44:36.725Z,98965.93
2023-01-19T10:45:39.581Z,98966.77
2023-01-19T10:46:44.943Z,98965.09
2023-01-19T10:47:47.902Z,98965.09
2023-01-19T10:48:52.145Z,98967.77
2023-01-19T10:49:55.609Z,98974.09
2023-01-19T10:51:02.471Z,98958.87
2023-01-19T10:53:31.854Z,98951.86
2023-01-19T10:54:35.800Z,98947.45
2023-01-19T10:55:39.228Z,98944.77
2023-01-19T10:56:43.178Z,98939.41
2023-01-19T10:57:47.537Z,98941.22
2023-01-19T10:58:50.051Z,98944.91
2023-01-19T10:59:52.761Z,98933.19
2023-01-19T11:00:56.511Z,98933.19
2023-01-19T11:03:30.158Z,98933.98
2023-01-19T11:04:33.500Z,98930.52
2023-01-19T11:05:38.042Z,98933.19
2023-01-19T11:06:40.897Z,98938.55
2023-01-19T11:07:44.177Z,98941.09
2023-01-19T11:08:48.940Z,98945.74
2023-01-19T11:10:21.179Z,98940.39
2023-01-19T11:11:23.856Z,98934.06
2023-01-19T11:12:26.794Z,98924.59
2023-01-19T11:13:29.366Z,98924.59
2023-01-19T11:14:35.196Z,98940.12
2023-01-19T11:15:43.379Z,98928.44
2023-01-19T11:16:55.531Z,98928.57
2023-01-19T11:17:59.578Z,98932.95
2023-01-19T11:19:03.233Z,98931.95
2023-01-19T11:20:09.075Z,98931.11
2023-01-19T11:21:13.422Z,98930.98
2023-01-19T11:22:21.761Z,98932.69
2023-01-19T11:23:27.039Z,98930.00
2023-01-19T11:24:29.972Z,98925.48
2023-01-19T11:25:35.581Z,98922.81
2023-01-19T11:26:48.756Z,98922.67
2023-01-19T11:27:52.630Z,98919.16
2023-01-19T11:28:56.895Z,98923.55
2023-01-19T11:30:09.992Z,98915.51
2023-01-19T11:31:18.089Z,98913.66
2023-01-19T11:32:21.925Z,98912.69
2023-01-19T11:33:50.694Z,98911.82
2023-01-19T11:34:54.683Z,98914.37
2023-01-19T11:36:18.042Z,98906.47
2023-01-19T11:37:30.367Z,98902.81
2023-01-19T11:38:33.163Z,98905.49
2023-01-19T11:39:47.258Z,98901.98
2023-01-19T11:40:53.643Z,98908.17
2023-01-19T11:43:13.278Z,98903.84
2023-01-19T11:44:23.044Z,98887.86
2023-01-19T11:45:47.908Z,98894.08
2023-01-19T11:47:10.437Z,98891.27
2023-01-19T11:48:25.977Z,98891.27
2023-01-19T11:49:43.972Z,98885.77
2023-01-19T11:50:46.667Z,98898.19
2023-01-19T11:51:53.136Z,98905.22
2023-01-19T11:52:58.973Z,98894.64
2023-01-19T16:07:37.758Z,98947.56
2023-01-19T16:08:41.754Z,98955.27
2023-01-19T16:09:44.733Z,98959.94
2023-01-19T16:10:48.567Z,98964.58
2023-01-19T16:11:54.938Z,98962.98
2023-01-19T16:12:58.563Z,98965.70
2023-01-19T16:14:02.313Z,98966.50
2023-01-19T16:15:06.523Z,98957.56
2023-01-19T16:17:28.130Z,98964.33
2023-01-19T16:18:31.805Z,98970.51
2023-01-19T16:19:36.135Z,98968.76
2023-01-19T16:20:39.213Z,98967.93
2023-01-19T16:21:43.757Z,98976.91
2023-01-19T16:22:46.577Z,98967.09
2023-01-19T16:23:49.855Z,98972.44
2023-01-19T16:24:53.026Z,98969.00
2023-01-19T16:27:16.852Z,98974.48
2023-01-19T16:28:22.889Z,98975.58
2023-01-19T16:29:28.509Z,98971.42
2023-01-19T16:30:31.454Z,98971.66
2023-01-19T16:31:40.965Z,98964.81
2023-01-19T16:32:52.717Z,98972.22
2023-01-19T16:35:53.156Z,98958.22
2023-01-19T16:37:01.101Z,98962.13
2023-01-19T16:38:04.689Z,98962.61
2023-01-19T16:39:13.196Z,98967.49
2023-01-19T16:40:17.669Z,98968.94
2023-01-19T16:41:24.425Z,98967.70
2023-01-19T16:42:27.564Z,98967.30
2023-01-19T16:43:30.046Z,98967.87
2023-01-19T16:44:35.180Z,98969.31
2023-01-19T16:46:01.154Z,98967.37
2023-01-19T16:47:03.877Z,98970.61
2023-01-19T16:48:11.155Z,98962.20
2023-01-19T16:50:32.340Z,98968.80
2023-01-19T16:51:36.859Z,98969.70
2023-01-19T16:52:40.327Z,98969.57
2023-01-19T16:53:42.783Z,98969.44
2023-01-19T16:54:45.395Z,98971.14
2023-01-19T16:55:48.526Z,98972.84
2023-01-19T16:56:51.979Z,98976.23
2023-01-19T16:57:57.505Z,98968.09
2023-01-19T16:59:01.787Z,98973.18
2023-01-19T17:00:06.022Z,98969.63
2023-01-19T17:01:11.031Z,98958.77
2023-01-19T17:02:14.977Z,98964.03
2023-01-19T17:03:18.075Z,98962.19
2023-01-19T17:04:22.020Z,98965.70
2023-01-19T17:05:24.736Z,98968.39
2023-01-19T17:06:28.911Z,98964.87
2023-01-19T17:07:31.186Z,98964.03
2023-01-19T17:08:34.469Z,98973.74
2023-01-19T17:09:37.733Z,98968.39
2023-01-19T17:10:42.346Z,98963.89
2023-01-19T17:11:46.014Z,98970.09
2023-01-19T17:12:48.547Z,98964.73
2023-01-19T17:13:59.516Z,98966.44
2023-01-19T17:15:03.273Z,98962.89
2023-01-19T17:16:07.449Z,98965.47
2023-01-19T17:17:11.088Z,98961.91
2023-01-19T17:18:13.869Z,98965.56
2023-01-19T17:19:22.425Z,98969.95
2023-01-19T17:20:25.012Z,98961.91
2023-01-19T17:21:29.183Z,98965.47
2023-01-19T17:22:33.668Z,98957.42
2023-01-19T17:23:36.872Z,98963.63
2023-01-19T17:24:42.029Z,98963.63
2023-01-19T17:25:53.836Z,98964.45
2023-01-19T17:26:57.383Z,98961.64
2023-01-19T17:28:01.349Z,98957.29
2023-01-19T17:29:05.766Z,98961.78
2023-01-19T17:30:11.115Z,98962.65
2023-01-19T17:31:18.346Z,98963.48
2023-01-19T17:32:21.445Z,98963.63
2023-01-19T17:33:24.963Z,98969.81
2023-01-19T17:34:28.881Z,98967.14
2023-01-19T17:35:33.917Z,98965.47
2023-01-19T17:36:37.967Z,98966.44
2023-01-19T17:37:40.508Z,98970.09
2023-01-19T17:38:43.773Z,98973.74
2023-01-19T17:39:46.903Z,98970.23
2023-01-19T17:40:49.668Z,98967.55
2023-01-19T17:41:52.114Z,98966.70
2023-01-19T17:42:55.769Z,98970.36
2023-01-19T17:44:00.307Z,98965.00
2023-01-19T17:45:03.202Z,98965.84
2023-01-19T17:46:06.724Z,98961.59
2023-01-19T17:47:09.797Z,98957.10
2023-01-19T17:48:12.880Z,98960.89
2023-01-19T17:49:16.118Z,98960.89
2023-01-19T17:50:18.783Z,98959.05
2023-01-19T17:51:24.623Z,98964.41
2023-01-19T17:52:28.717Z,98958.34
2023-01-19T17:53:33.579Z,98960.16
2023-01-19T17:54:36.927Z,98962.83
2023-01-19T17:55:39.448Z,98962.97
2023-01-19T17:56:42.244Z,98963.84
2023-01-19T17:57:47.242Z,98953.96
2023-01-19T17:58:50.671Z,98962.97
2023-01-19T17:59:53.213Z,98965.78
2023-01-19T18:00:55.780Z,98958.72
2023-01-19T18:01:58.355Z,98958.72
2023-01-19T18:03:01.542Z,98963.24
2023-01-19T18:04:05.041Z,98969.44
2023-01-19T18:05:10.469Z,98965.08
2023-01-19T18:06:13.692Z,98964.34
2023-01-19T18:07:16.899Z,98966.19
2023-01-19T18:08:21.922Z,98968.00
2023-01-19T18:09:26.225Z,98971.69
2023-01-19T18:10:29.649Z,98964.62
2023-01-19T18:11:33.589Z,98969.97
2023-01-19T18:12:36.907Z,98961.23
2023-01-19T18:13:40.240Z,98966.59
2023-01-19T18:14:43.645Z,98965.72
2023-01-19T18:15:46.359Z,98961.34
2023-01-19T18:16:49.155Z,98970.24
2023-01-19T18:17:51.892Z,98966.70
2023-01-19T18:18:56.924Z,98955.98
2023-01-19T18:20:01.309Z,98965.86
2023-01-19T18:22:19.064Z,98971.28
2023-01-19T18:23:22.567Z,98966.00
2023-01-19T18:24:26.382Z,98961.61
2023-01-19T18:25:29.478Z,98962.71
2023-01-19T18:26:33.389Z,98972.45
2023-01-19T18:27:35.871Z,98961.74
2023-01-19T18:28:38.275Z,98976.11
2023-01-19T18:29:40.840Z,98967.23
2023-01-19T18:30:43.241Z,98960.17
2023-01-19T18:31:45.785Z,98963.52
2023-01-19T18:32:50.049Z,98963.52
2023-01-19T18:33:53.681Z,98967.64
2023-01-19T18:34:59.136Z,98962.28
2023-01-19T18:36:01.578Z,98964.22
2023-01-19T18:37:04.469Z,98962.52
2023-01-19T18:38:07.385Z,98959.84
2023-01-19T18:39:10.256Z,98965.33
2023-01-19T18:40:13.432Z,98970.69
2023-01-19T18:41:19.085Z,98959.27
2023-01-19T18:42:22.937Z,98956.72
2023-01-19T18:43:25.389Z,98954.05
2023-01-19T18:44:28.074Z,98958.53
2023-01-19T18:45:30.288Z,98952.47
2023-01-19T18:46:33.689Z,98957.83
2023-01-19T18:47:36.695Z,98963.31
2023-01-19T18:48:39.567Z,98956.12
2023-01-19T18:49:42.229Z,98956.25
2023-01-19T18:50:44.918Z,98954.55
2023-01-19T18:51:47.350Z,98959.06
2023-01-19T18:52:50.745Z,98954.67
2023-01-19T18:53:54.188Z,98961.88
2023-01-19T18:54:57.687Z,98961.00
2023-01-19T18:56:01.960Z,98961.14
2023-01-19T18:57:04.405Z,98970.04
2023-01-19T18:58:08.249Z,98965.66
2023-01-19T18:59:10.737Z,98968.44
2023-01-19T19:00:15.051Z,98961.38
2023-01-19T19:01:32.507Z,98974.75
2023-01-19T19:02:34.331Z,98977.44
2023-01-19T19:03:36.989Z,98971.23
2023-01-19T19:04:41.146Z,98971.23
2023-01-19T19:05:44.592Z,98973.05
2023-01-19T19:06:47.356Z,98972.21
2023-01-19T19:07:50.016Z,98970.50
2023-01-19T19:08:54.690Z,98970.50
2023-01-19T19:09:58.061Z,98965.28
2023-01-19T19:11:01.548Z,98968.83
2023-01-19T19:12:04.923Z,98971.50
2023-01-19T19:13:08.433Z,98969.80
2023-01-19T19:14:11.101Z,98979.64
2023-01-19T19:15:14.899Z,98971.61
2023-01-19T19:16:18.620Z,98976.96
2023-01-19T19:17:22.240Z,98976.12
2023-01-19T19:18:25.159Z,98974.41
2023-01-19T19:19:29.433Z,98974.41
2023-01-19T19:20:32.211Z,98978.09
2023-01-19T19:21:49.299Z,98977.22
2023-01-19T19:22:57.403Z,98985.25
2023-01-19T19:24:00.123Z,98983.55
2023-01-19T19:25:03.618Z,98980.03
2023-01-19T19:27:21.134Z,98979.14
2023-01-19T19:28:23.403Z,98970.16
2023-01-19T19:29:27.866Z,98978.20
2023-01-19T19:30:33.581Z,98978.09
2023-01-19T19:31:37.262Z,98972.39
2023-01-19T19:32:39.890Z,98977.22
2023-01-19T19:33:42.433Z,98981.61
2023-01-19T19:34:48.652Z,98977.96
2023-01-19T19:35:56.166Z,98978.80
2023-01-19T19:37:01.389Z,98978.66
2023-01-19T19:38:03.960Z,98987.44
2023-01-19T19:39:06.976Z,98992.66
2023-01-19T19:40:11.189Z,98992.53
2023-01-19T19:41:16.763Z,98988.91
2023-01-19T19:42:20.722Z,98987.91
2023-01-19T19:43:24.087Z,98983.42
2023-01-19T19:44:27.710Z,98985.10
2023-01-19T19:45:30.203Z,98981.45
2023-01-19T19:50:02.091Z,98974.36
2023-01-19T19:52:32.143Z,98979.82
2023-01-19T22:03:48.869Z,99079.54
2023-01-19T22:04:52.094Z,99065.89
2023-01-19T22:05:55.390Z,99066.94
2023-01-19T22:06:58.106Z,99079.63
2023-01-19T22:08:00.854Z,99072.66
2023-01-19T22:09:04.725Z,99070.95
2023-01-19T22:10:09.982Z,99070.94
2023-01-19T22:11:14.330Z,99075.49
2023-01-19T22:12:17.407Z,99074.48
2023-01-19T22:13:20.853Z,99076.37
2023-01-19T22:14:24.448Z,99087.81
2023-01-19T22:15:26.849Z,99083.52
2023-01-19T22:16:30.975Z,99081.00
2023-01-19T22:17:34.297Z,99081.06
2023-01-19T22:18:38.825Z,99089.11
2023-01-19T22:19:42.037Z,99085.75
2023-01-19T22:20:46.813Z,99085.02
2023-01-19T22:21:49.712Z,99087.95
2023-01-19T22:22:53.007Z,99084.58
2023-01-19T22:23:58.372Z,99086.64
2023-01-19T22:25:03.250Z,99091.40
2023-01-19T22:26:07.029Z,99086.30
2023-01-19T22:27:09.983Z,99093.86
2023-01-19T22:28:12.847Z,99094.35
2023-01-19T22:29:15.975Z,99102.00
2023-01-19T22:30:19.157Z,99102.37
2023-01-19T22:31:22.281Z,99105.67
2023-01-19T22:32:25.407Z,99110.64
2023-01-19T22:33:28.898Z,99112.94
2023-01-19T22:34:31.272Z,99108.83
2023-01-19T22:35:33.899Z,99108.83
2023-01-19T22:36:36.874Z,99112.09
2023-01-19T22:37:39.264Z,99109.16
2023-01-19T22:38:42.356Z,99117.06
2023-01-19T22:39:46.148Z,99110.61
2023-01-19T22:40:49.281Z,99113.91
2023-01-19T22:41:52.275Z,99117.30
2023-01-19T22:42:55.677Z,99118.88
2023-01-19T22:44:01.364Z,99117.78
2023-01-19T22:45:06.208Z,99117.66
2023-01-19T22:46:09.319Z,99113.05
2023-01-19T22:47:26.270Z,99116.43
2023-01-19T22:48:31.028Z,99114.49
2023-01-19T22:49:35.393Z,99118.84
2023-01-19T22:50:38.058Z,99111.56
2023-01-19T22:51:40.491Z,99108.88
2023-01-19T22:52:42.919Z,99110.59
2023-01-19T22:53:46.528Z,99109.46
2023-01-19T22:54:51.963Z,99114.82
2023-01-19T22:55:55.959Z,99121.88
2023-01-19T22:56:59.261Z,99122.78
2023-01-19T22:58:02.366Z,99128.02
2023-01-19T22:59:05.394Z,99119.11
2023-01-19T23:00:09.265Z,99120.82
2023-01-19T23:01:13.151Z,99124.23
2023-01-19T23:02:16.057Z,99124.23
2023-01-19T23:03:19.760Z,99125.08
2023-01-19T23:04:23.812Z,99125.91
2023-01-19T23:05:26.625Z,99118.75
2023-01-19T23:06:31.487Z,99117.88
2023-01-19T23:07:34.101Z,99127.62
2023-01-19T23:08:37.247Z,99112.79
2023-01-19T23:09:40.731Z,99112.79
2023-01-19T23:10:43.502Z,99124.82
2023-01-19T23:11:49.772Z,99126.53
2023-01-19T23:12:52.504Z,99136.41
2023-01-19T23:13:56.099Z,99136.27
2023-01-19T23:14:58.690Z,99134.56
2023-01-19T23:16:01.171Z,99143.44
2023-01-19T23:17:03.700Z,99145.14
2023-01-19T23:18:06.733Z,99138.95
2023-01-19T23:19:12.027Z,99135.27
2023-01-19T23:20:16.372Z,99129.92
2023-01-19T23:21:20.000Z,99137.95
2023-01-19T23:22:23.116Z,99136.85
2023-01-19T23:23:26.227Z,99133.34
2023-01-19T23:24:28.718Z,99139.53
2023-01-19T23:25:32.265Z,99135.05
2023-01-19T23:26:36.854Z,99134.92
2023-01-19T23:27:39.393Z,99128.56
2023-01-19T23:28:42.301Z,99129.43
2023-01-19T23:29:45.954Z,99132.11
2023-01-19T23:30:48.830Z,99131.23
2023-01-19T23:31:52.879Z,99136.50
2023-01-19T23:32:55.466Z,99131.14
2023-01-19T23:33:59.781Z,99137.34
2023-01-19T23:35:02.711Z,99139.17
2023-01-19T23:36:06.572Z,99134.66
2023-01-19T23:37:10.327Z,99139.05
2023-01-19T23:38:12.778Z,99138.30
2023-01-19T23:39:19.737Z,99131.98
2023-01-19T23:40:22.593Z,99136.50
2023-01-19T23:41:25.641Z,99139.17
2023-01-19T23:42:29.383Z,99142.70
2023-01-19T23:43:31.809Z,99139.17
2023-01-19T23:44:35.346Z,99135.62
2023-01-19T23:45:37.651Z,99142.70
2023-01-19T23:46:40.517Z,99134.79
2023-01-19T23:47:48.401Z,99143.66
2023-01-19T23:48:50.848Z,99145.38
2023-01-19T23:49:53.188Z,99149.76
2023-01-19T23:50:56.673Z,99151.44
2023-01-19T23:51:59.278Z,99152.31
2023-01-19T23:53:01.784Z,99156.70
2023-01-19T23:54:04.133Z,99161.05
2023-01-19T23:55:10.094Z,99159.11
2023-01-19T23:56:27.612Z,99156.44
2023-01-19T23:57:32.017Z,99156.31
2023-01-19T23:58:48.489Z,99165.05
